Time;durP1;ratioP1;P1;durP2;ratioP2;P2;SDS_P1;SDS_P2;PMS_P1;PMS_P2;Temp;Humidity;BMP_temperature;BMP_pressure;BME280_temperature;BME280_humidity;BME280_pressure;Samples;Min_cycle;Max_cycle;Signal;HPM_P1;HPM_P2
2022/12/26 00:04:49;;;;;;;44.60;22.10;;;;;;;5.26;94.47;98631.20;420689;1290;110575;-41
2022/12/26 00:14:59;;;;;;;43.30;22.50;;;;;;;5.26;94.36;98635.44;420539;1287;108666;-40
2022/12/26 00:25:08;;;;;;;48.30;22.90;;;;;;;5.26;94.42;98619.80;420706;1291;98797;-38
2022/12/26 00:35:15;;;;;;;41.50;21.00;;;;;;;5.25;94.31;98626.04;420534;1295;107116;-40
2022/12/26 00:45:21;;;;;;;45.00;21.90;;;;;;;5.20;94.12;98610.69;420652;1297;99357;-40
2022/12/26 00:55:29;;;;;;;46.90;25.80;;;;;;;5.10;94.15;98586.84;420607;1291;112339;-39
2022/12/26 01:05:40;;;;;;;39.20;20.60;;;;;;;5.05;94.28;98590.22;420554;1289;109491;-39
2022/12/26 01:25:55;;;;;;;40.30;21.20;;;;;;;5.16;94.29;98566.66;420617;1292;107986;-40
2022/12/26 01:36:22;;;;;;;42.10;20.20;;;;;;;5.24;94.06;98551.27;420747;1289;99390;-39
2022/12/26 01:46:28;;;;;;;32.20;15.30;;;;;;;5.31;93.98;98535.10;420708;1291;111381;-40
2022/12/26 01:56:37;;;;;;;32.70;16.20;;;;;;;5.42;93.82;98529.14;420593;1298;107021;-39
2022/12/26 02:06:45;;;;;;;25.50;15.80;;;;;;;5.46;93.75;98518.20;420717;1291;98840;-40
2022/12/26 02:16:52;;;;;;;37.00;18.30;;;;;;;5.51;93.73;98502.14;420646;1291;109023;-38
2022/12/26 02:27:05;;;;;;;29.60;16.00;;;;;;;5.59;93.68;98481.80;420621;1284;98857;-39
2022/12/26 02:37:16;;;;;;;29.20;18.50;;;;;;;5.65;93.61;98451.89;422194;1261;228168;-40
2022/12/26 02:47:33;;;;;;;30.70;17.40;;;;;;;5.70;93.64;98464.21;421794;1289;106569;-40
2022/12/26 03:18:41;;;;;;;32.40;16.00;;;;;;;6.09;94.11;98412.67;421854;1289;99220;-38
2022/12/26 04:21:06;;;;;;;22.00;10.80;;;;;;;6.96;94.38;98362.98;421906;1289;112210;-40
2022/12/26 05:12:44;;;;;;;17.40;11.00;;;;;;;7.27;94.42;98333.38;421887;1289;112011;-40
2022/12/26 05:43:41;;;;;;;21.50;10.10;;;;;;;7.35;94.41;98358.27;421708;1289;107891;-40
2022/12/26 06:03:56;;;;;;;16.20;10.90;;;;;;;7.32;94.48;98366.30;421586;1289;110197;-40
2022/12/26 06:24:09;;;;;;;17.10;11.20;;;;;;;7.34;94.34;98357.44;421766;1298;99215;-39
2022/12/26 06:34:17;;;;;;;17.40;11.20;;;;;;;7.36;94.54;98362.15;421565;1297;106332;-40
2022/12/26 06:44:24;;;;;;;20.40;12.30;;;;;;;7.38;94.55;98361.31;421662;1288;99177;-39
2022/12/26 06:54:32;;;;;;;18.70;11.30;;;;;;;7.37;94.53;98378.21;421655;1291;110180;-40
2022/12/26 07:04:39;;;;;;;20.10;13.00;;;;;;;7.35;94.51;98366.73;421669;1295;108404;-41
2022/12/26 07:14:47;;;;;;;18.60;12.80;;;;;;;7.34;94.49;98355.09;421693;1296;99252;-40
2022/12/26 07:24:54;;;;;;;19.00;12.90;;;;;;;7.34;94.59;98364.11;421601;1289;108712;-40
2022/12/26 07:35:01;;;;;;;23.50;13.90;;;;;;;7.41;94.62;98365.90;421819;1291;99217;-40
2022/12/26 07:45:09;;;;;;;21.90;13.50;;;;;;;7.43;94.62;98375.08;421756;1295;111131;-39
2022/12/26 07:55:17;;;;;;;22.10;12.70;;;;;;;7.47;94.61;98375.77;421569;1299;108015;-40
2022/12/26 08:05:24;;;;;;;24.70;15.80;;;;;;;7.47;94.70;98381.15;421691;1297;99345;-39
2022/12/26 08:15:32;;;;;;;30.20;16.20;;;;;;;7.44;94.71;98400.89;421599;1292;109367;-39
2022/12/26 08:25:38;;;;;;;24.30;15.60;;;;;;;7.42;94.72;98401.08;421701;1298;99236;-40
2022/12/26 08:35:47;;;;;;;22.10;13.90;;;;;;;7.43;94.74;98415.30;421594;1297;111334;-40
2022/12/26 08:56:05;;;;;;;26.10;15.90;;;;;;;7.53;94.85;98387.93;421840;1289;99243;-39
2022/12/26 09:06:14;;;;;;;37.20;20.70;;;;;;;7.57;95.00;98391.92;421681;1294;105951;-38
2022/12/26 09:16:23;;;;;;;28.30;17.70;;;;;;;7.61;95.01;98387.88;421707;1291;98009;-40
2022/12/26 09:26:32;;;;;;;23.30;16.50;;;;;;;7.67;94.98;98402.36;421722;1282;112226;-40
2022/12/26 09:36:40;;;;;;;28.30;17.30;;;;;;;7.78;95.11;98392.20;421643;1291;106750;-41
2022/12/26 09:56:56;;;;;;;25.50;16.60;;;;;;;8.13;95.17;98392.39;421697;1281;108403;-40
2022/12/26 10:07:15;;;;;;;28.60;17.70;;;;;;;8.19;95.02;98375.41;421768;1298;98027;-39
2022/12/26 10:17:25;;;;;;;23.90;15.60;;;;;;;8.22;94.95;98378.05;421698;1289;112928;-39
2022/12/26 10:27:40;;;;;;;26.50;17.00;;;;;;;8.32;94.82;98381.73;421736;1295;107363;-41
2022/12/26 10:37:49;;;;;;;26.40;17.50;;;;;;;8.47;94.86;98406.45;421619;1294;101551;-39
2022/12/26 10:47:57;;;;;;;26.80;18.20;;;;;;;8.65;94.80;98408.96;421662;1297;107410;-40
2022/12/26 10:58:06;;;;;;;29.90;18.20;;;;;;;8.87;94.88;98393.63;421747;1291;98865;-39
2022/12/26 11:08:15;;;;;;;28.00;17.80;;;;;;;8.86;94.36;98385.58;421837;1299;111650;-40
2022/12/26 11:18:31;;;;;;;30.80;19.10;;;;;;;8.87;94.28;98369.38;421631;1299;107397;-40
2022/12/26 11:28:39;;;;;;;29.20;17.00;;;;;;;8.89;94.27;98362.66;421656;1299;98042;-40
2022/12/26 11:38:47;;;;;;;23.80;16.10;;;;;;;8.87;94.19;98350.64;421599;1284;107982;-38
2022/12/26 11:48:54;;;;;;;26.40;16.00;;;;;;;8.76;94.19;98361.43;421734;1294;99329;-38
2022/12/26 11:59:05;;;;;;;32.00;15.80;;;;;;;8.70;93.89;98347.88;421759;1293;113288;-41
2022/12/26 12:09:13;;;;;;;25.30;15.60;;;;;;;8.78;93.96;98336.70;421681;1298;107554;-39
2022/12/26 12:19:30;;;;;;;22.90;13.80;;;;;;;8.92;93.86;98341.64;421769;1298;99214;-39
2022/12/26 12:29:54;;;;;;;22.60;13.50;;;;;;;9.13;93.82;98340.30;421916;1298;109637;-40
2022/12/26 12:40:05;;;;;;;27.80;15.40;;;;;;;9.36;93.58;98341.39;421743;1295;98050;-40
2022/12/26 12:50:13;;;;;;;26.40;14.80;;;;;;;9.74;93.38;98318.95;421675;1291;111314;-39
2022/12/26 13:00:18;;;;;;;22.90;14.10;;;;;;;9.94;92.99;98318.11;421727;1294;106762;-39
2022/12/26 13:10:26;;;;;;;23.20;15.20;;;;;;;9.89;92.76;98325.39;421870;1286;98091;-40
2022/12/26 13:20:34;;;;;;;24.30;14.70;;;;;;;9.75;92.43;98308.95;421782;1290;108679;-41
2022/12/26 13:30:42;;;;;;;23.60;14.70;;;;;;;9.60;92.12;98298.27;421771;1287;99217;-40
2022/12/26 13:40:49;;;;;;;26.20;16.20;;;;;;;9.42;92.05;98307.10;421916;1295;111515;-40
2022/12/26 14:01:01;;;;;;;19.70;12.00;;;;;;;9.03;91.72;98317.30;421897;1299;98058;-39
2022/12/26 14:11:09;;;;;;;18.00;12.10;;;;;;;8.87;91.63;98315.74;421853;1301;109068;-40
2022/12/26 14:21:23;;;;;;;23.30;15.70;;;;;;;8.78;91.83;98313.41;421859;1299;99214;-40
2022/12/26 14:31:35;;;;;;;29.00;18.40;;;;;;;8.68;91.83;98319.40;421716;1298;112351;-40
2022/12/26 14:52:43;;;;;;;27.30;16.20;;;;;;;8.45;91.72;98330.78;424799;1295;97962;-40
2022/12/26 15:03:12;;;;;;;28.60;16.50;;;;;;;8.40;91.88;98330.28;421819;1292;108111;-40
2022/12/26 15:13:41;;;;;;;31.70;16.90;;;;;;;8.39;92.07;98330.88;421742;1289;98038;-41
2022/12/26 15:24:03;;;;;;;31.00;18.80;;;;;;;8.41;92.15;98306.60;421804;1295;112530;-41
2022/12/26 15:44:30;;;;;;;31.40;17.90;;;;;;;8.38;92.29;98293.97;421844;1299;99264;-41
2022/12/26 15:54:58;;;;;;;32.40;18.10;;;;;;;8.35;92.41;98307.33;421923;1301;108614;-40
2022/12/26 16:05:09;;;;;;;31.20;19.20;;;;;;;8.32;92.34;98294.95;421861;1298;98052;-40
2022/12/26 16:15:19;;;;;;;39.30;22.60;;;;;;;8.22;92.42;98297.62;421872;1300;111504;-41
2022/12/26 16:25:23;;;;;;;22.90;13.90;;;;;;;8.16;92.22;98299.24;421855;1287;107933;-41
2022/12/26 16:35:35;;;;;;;19.30;12.20;;;;;;;8.19;92.39;98308.51;421765;1294;98850;-39
2022/12/26 16:45:44;;;;;;;19.80;12.00;;;;;;;8.32;92.34;98301.64;421874;1299;108850;-40
2022/12/26 16:55:56;;;;;;;20.00;13.20;;;;;;;8.40;92.34;98300.25;421867;1299;99262;-40
2022/12/26 17:06:05;;;;;;;21.50;13.20;;;;;;;8.44;92.25;98301.81;421795;1289;112332;-41
2022/12/26 17:16:13;;;;;;;28.90;16.80;;;;;;;8.44;92.32;98296.70;421957;1294;107665;-40
2022/12/26 17:26:20;;;;;;;27.80;15.40;;;;;;;8.38;92.29;98302.19;421959;1289;98381;-40
2022/12/26 17:36:26;;;;;;;18.50;11.40;;;;;;;8.38;92.16;98306.81;421822;1294;107843;-39
2022/12/26 17:46:53;;;;;;;25.50;15.30;;;;;;;8.38;92.27;98312.73;422018;1289;98850;-40
2022/12/26 17:57:00;;;;;;;28.20;16.50;;;;;;;8.37;92.38;98308.16;421933;1289;111173;-39
2022/12/26 18:07:10;;;;;;;28.10;17.50;;;;;;;8.31;92.18;98322.00;421905;1288;108523;-41
2022/12/26 18:17:18;;;;;;;30.70;17.10;;;;;;;8.26;92.33;98317.21;421915;1294;99335;-40
2022/12/26 18:27:29;;;;;;;24.70;15.20;;;;;;;8.22;92.42;98322.58;421951;1295;108568;-40
2022/12/26 18:37:36;;;;;;;27.30;14.30;;;;;;;8.20;92.46;98328.80;421831;1296;98616;-41
2022/12/26 18:47:43;;;;;;;18.00;13.00;;;;;;;8.20;92.43;98337.18;422026;1298;110758;-40
2022/12/26 18:57:52;;;;;;;29.20;15.80;;;;;;;8.23;92.68;98350.89;421925;1286;107362;-40
2022/12/26 19:08:00;;;;;;;21.00;12.80;;;;;;;8.23;92.83;98363.48;421901;1299;98025;-40
2022/12/26 19:18:05;;;;;;;20.60;12.80;;;;;;;8.18;93.00;98376.88;422018;1287;107598;-40
2022/12/26 19:28:12;;;;;;;27.10;16.70;;;;;;;8.11;93.14;98379.76;421880;1289;99270;-41
2022/12/26 19:38:19;;;;;;;27.00;15.30;;;;;;;8.08;93.57;98379.36;421763;1291;111766;-40
2022/12/26 19:48:26;;;;;;;39.10;18.60;;;;;;;8.07;93.55;98382.61;421833;1282;108115;-41
2022/12/26 19:58:32;;;;;;;32.60;15.70;;;;;;;8.03;93.79;98401.10;421860;1289;99345;-42
2022/12/26 20:08:38;;;;;;;28.10;15.70;;;;;;;7.98;93.83;98398.16;421852;1298;108806;-40
2022/12/26 20:18:46;;;;;;;27.20;14.80;;;;;;;7.90;93.86;98388.90;421930;1299;98372;-40
2022/12/26 20:28:56;;;;;;;33.50;16.10;;;;;;;7.86;93.96;98393.77;421945;1289;111036;-41
2022/12/26 20:39:05;;;;;;;29.90;15.80;;;;;;;7.74;93.88;98406.98;421829;1288;108405;-40
2022/12/26 20:49:14;;;;;;;26.70;15.30;;;;;;;7.70;94.19;98421.55;421893;1298;98614;-45
2022/12/26 20:59:22;;;;;;;29.70;16.70;;;;;;;7.73;94.27;98429.10;421834;1299;107039;-39
2022/12/26 21:09:30;;;;;;;32.20;21.20;;;;;;;7.71;94.30;98418.67;421901;1289;98022;-41
2022/12/26 21:19:37;;;;;;;29.40;18.70;;;;;;;7.67;94.47;98426.97;421924;1289;111356;-41
2022/12/26 21:29:44;;;;;;;25.40;14.40;;;;;;;7.59;94.49;98438.73;421779;1298;108817;-41
2022/12/26 21:39:50;;;;;;;20.80;13.00;;;;;;;7.56;94.70;98436.33;421989;1289;98470;-41
2022/12/26 21:49:58;;;;;;;22.60;12.80;;;;;;;7.54;94.71;98418.03;421849;1299;107220;-40
2022/12/26 22:00:06;;;;;;;23.10;13.50;;;;;;;7.51;94.92;98425.55;421822;1281;98526;-40
2022/12/26 22:20:35;;;;;;;34.20;20.80;;;;;;;7.48;94.98;98404.41;421875;1298;108093;-41
2022/12/26 22:41:00;;;;;;;31.70;19.70;;;;;;;7.46;95.18;98404.16;422038;1298;107713;-40
2022/12/26 22:51:07;;;;;;;25.90;15.10;;;;;;;7.45;95.13;98403.64;421853;1298;98928;-40
2022/12/26 23:01:14;;;;;;;23.20;15.40;;;;;;;7.38;95.29;98393.61;421886;1298;113167;-40
2022/12/26 23:11:21;;;;;;;23.90;14.90;;;;;;;7.37;95.38;98377.48;421886;1289;106819;-41
2022/12/26 23:21:43;;;;;;;20.20;14.70;;;;;;;7.36;95.52;98378.51;422092;1296;98311;-40
2022/12/26 23:31:51;;;;;;;23.80;14.60;;;;;;;7.35;95.53;98363.25;421947;1298;108227;-41
2022/12/26 23:41:58;;;;;;;19.80;14.90;;;;;;;7.33;95.55;98342.82;421842;1294;101459;-41
2022/12/26 23:52:04;;;;;;;20.20;12.30;;;;;;;7.35;95.68;98327.40;421864;1291;113243;-40
